Airfield :
LOGIN :

Register | Disclaimer

   EN    FR    IT 

 










Legend :    VFR   Marginal VFR   IFR   Intensive IFR   Very Intensive IFR
Visi :
Ceiling :
>= 8 km
>= 3000ft
5 to 8 km
1000 to 3000 ft
1500m to 5 km
500 to 1000 ft
800 to 1500m
200 to 500 ft
< 800m
< 200 ft
Symbols :   Thunderstorms  Fog  Heavy snow  Heavy precipitations  Wind > 20 kt
SIGMETs :     Misc.  Thunderstorms  Icing  Turbulence  Mountain Waves  Volcanic Ashes






- Airport Elevation : 87 ft
- IATA code : AHO


LIEA - Fertilia Alghero

CURRENT METAR :
  • 150220Z 24007KT CAVOK 14/11 Q1001

EXPIRED METARs :
  • 150150Z 26008KT CAVOK 14/11 Q1001
  • 150120Z 27006KT CAVOK 13/11 Q1001
  • 150050Z 30007KT 260V320 CAVOK 14/12 Q1001
  • 150020Z 27008KT 240V300 9999 -RA FEW025 14/12 Q1001
  • 142350Z 25016KT 9999 -RA FEW025 13/13 Q1001 RETS

TAF TAF LIEA
Valid from the 15 at 00:00 until the 16 at 00:00 UTC


142300Z 1500/1524 21020G30KT 9999 BKN025 BKN050
BECMG 1500/1502 25015KT
TEMPO 1500/1524 4000 TSRA
BECMG 1506/1508 VRB05KT
BECMG 1510/1512 21015KT



MET'MAP, your aeronautical weather chart ! - Copyright ORBIFLY December 2007 - Disclaimer

ORBIFLY MET'MAP TEAM :

Programming & Development : Alexandra Zaïnal
Concept & Development : Baudouin d'Aumeries
Co-Development & Prog : Marc-Olivier Méhu
Technical & hardware support : Manuel Goepfert

Contact : metmap@orbifly.com




SOURCES & CREDITS :

   NOAA